Aérodrome :
LOGIN :

S'inscrire | Disclaimer

   EN    FR    IT 

 










Légende :    VFR   VFR Marginal   IFR   IFR Intensif   IFR Très Intensif
Visi : 
Plafond : 
>= 8 km
>= 3000ft
5 à 8 km
1000 à 3000 ft
1500m à 5 km
500 à 1000 ft
800 à 1500m
200 à 500 ft
< 800m
< 200 ft
Symboles :   Orages  Brouillard  Fortes neiges  Fortes précipitations  Vent > 20 kt
SIGMETs :   Divers  Orages  Givrage  Turbulence  Onde Orograph.  Cendres Volcan.







- Altitude de l'aérodrome : 1197 ft
- Code IATA : SPM


ETAD - Spangdahlem Ab

DERNIER METAR :
  • 200143Z AUTO 24004KT 9999 OVC080 07/06 A3016 RMK AO2 SLP206 TSNO

METARs EXPIRÉS :
  • 200133Z AUTO 25003KT 9999 OVC080 08/06 A3016 RMK AO2 SLP206 TSNO
  • 200058Z AUTO 28003KT 9999 FEW029 SCT055 BKN075 08/06 A3017 RMK AO2 SLP209 TSNO
  • 200003Z AUTO 29004KT 9999 FEW050 SCT070 08/07 A3017 RMK AO2 SLP209 TSNO
  • 192308Z AUTO 00000KT 9999 BKN065 07/06 A3016 RMK AO2 SLP206 TSNO
  • 192258Z AUTO 29003KT 9999 FEW065 07/05 A3016 RMK AO2 SLP207 T00680054 401490063 TSNO

TAF TAF ETAD
Valide du 19 à 19h jusqu'au 21 à 01h UTC


191902Z 1919/2101 VRB06KT 9999 FEW020 QNH3013INS
BECMG 1921/1922 VRB06KT 5000 BR FEW002 QNH3015INS
BECMG 1923/1924 VRB06KT 0800 FG OVC002 QNH3016INS
BECMG 2007/2008 23006KT 5000 BR OVC003 QNH3018INS
BECMG 2009/2010 26009KT 9999 NSW FEW010 SCT025 QNH3014INS
BECMG 2022/2023 VRB06KT 5000 BR FEW005 SCT080 QNH3013INS TX15/2013Z TN06/2003Z LAST NO AMDS AFT 1920 NEXT 2004
Pas de NOTAMs connus pour ce terrain.



MET'MAP, la Météo Aéronautique d'un coup d'oeil ! - Copyright ORBIFLY Décembre 2007 - Disclaimer

ORBIFLY MET'MAP TEAM :

Programmation & Développement : Alexandra Zaïnal
Conception & Développement : Baudouin d'Aumeries
Co-Programmation & Développement : Marc-Olivier Méhu
Soutien technique & logistique : Manuel Goepfert

Contact : metmap@orbifly.com




SOURCES & CREDITS :

   NOAA